Terminal Aerodrome Forecast
Issued by NWS Topeka, KS

Home | Current Version | Previous Version | Text Only | Print | Product List | Glossary On
Versions: 1 2 3 4 5 6 7 8 9 10 11 12 13
000
FTUS43 KTOP 111140
TAFTOP
TAF
KTOP 111140Z 1112/1212 15006KT P6SM OVC018
      TEMPO 1112/1116 5SM -DZ OVC009
     FM111700 24007KT P6SM OVC018
     FM111900 32012KT P6SM SCT020 BKN035
     FM120100 33007KT P6SM SCT200=

USA.gov is the U.S. government's official web portal to all federal, state and local government web resources and services.